sensor_id;sensor_type;location;lat;lon;timestamp;P1;durP1;ratioP1;P2;durP2;ratioP2
11439;SDS011;5776;51.814;4.510;2023-03-01T00:01:13;8.20;;;6.40;;
11439;SDS011;5776;51.814;4.510;2023-03-01T00:03:41;11.13;;;7.03;;
11439;SDS011;5776;51.814;4.510;2023-03-01T00:06:07;8.43;;;5.40;;
11439;SDS011;5776;51.814;4.510;2023-03-01T00:08:34;8.90;;;6.43;;
11439;SDS011;5776;51.814;4.510;2023-03-01T00:11:05;9.90;;;7.10;;
11439;SDS011;5776;51.814;4.510;2023-03-01T00:13:33;8.00;;;5.83;;
11439;SDS011;5776;51.814;4.510;2023-03-01T00:16:07;8.53;;;6.73;;
11439;SDS011;5776;51.814;4.510;2023-03-01T00:18:34;7.93;;;6.70;;
11439;SDS011;5776;51.814;4.510;2023-03-01T00:21:00;7.97;;;6.50;;
11439;SDS011;5776;51.814;4.510;2023-03-01T00:23:27;7.70;;;5.53;;
11439;SDS011;5776;51.814;4.510;2023-03-01T00:25:53;10.60;;;6.90;;
11439;SDS011;5776;51.814;4.510;2023-03-01T00:28:20;8.50;;;6.80;;
11439;SDS011;5776;51.814;4.510;2023-03-01T00:30:46;9.50;;;6.90;;
11439;SDS011;5776;51.814;4.510;2023-03-01T00:33:12;9.57;;;7.37;;
11439;SDS011;5776;51.814;4.510;2023-03-01T00:35:38;10.47;;;7.77;;
11439;SDS011;5776;51.814;4.510;2023-03-01T00:38:04;11.00;;;8.03;;
11439;SDS011;5776;51.814;4.510;2023-03-01T00:40:31;9.23;;;7.10;;
11439;SDS011;5776;51.814;4.510;2023-03-01T00:42:58;12.03;;;7.17;;
11439;SDS011;5776;51.814;4.510;2023-03-01T00:45:26;9.63;;;7.50;;
11439;SDS011;5776;51.814;4.510;2023-03-01T00:47:52;12.53;;;8.00;;
11439;SDS011;5776;51.814;4.510;2023-03-01T00:50:18;9.27;;;7.67;;
11439;SDS011;5776;51.814;4.510;2023-03-01T00:52:45;7.97;;;6.90;;
11439;SDS011;5776;51.814;4.510;2023-03-01T00:55:11;12.87;;;8.37;;
11439;SDS011;5776;51.814;4.510;2023-03-01T00:57:37;13.40;;;7.37;;
11439;SDS011;5776;51.814;4.510;2023-03-01T01:00:04;11.53;;;7.43;;
11439;SDS011;5776;51.814;4.510;2023-03-01T01:02:32;8.70;;;6.93;;
11439;SDS011;5776;51.814;4.510;2023-03-01T01:04:58;9.83;;;7.27;;
11439;SDS011;5776;51.814;4.510;2023-03-01T01:07:24;10.37;;;7.70;;
11439;SDS011;5776;51.814;4.510;2023-03-01T01:09:50;10.23;;;6.80;;
11439;SDS011;5776;51.814;4.510;2023-03-01T01:12:16;10.00;;;7.27;;
11439;SDS011;5776;51.814;4.510;2023-03-01T01:14:42;10.90;;;7.40;;
11439;SDS011;5776;51.814;4.510;2023-03-01T01:17:08;9.33;;;7.13;;
11439;SDS011;5776;51.814;4.510;2023-03-01T01:19:34;9.83;;;7.50;;
11439;SDS011;5776;51.814;4.510;2023-03-01T01:22:00;10.27;;;7.80;;
11439;SDS011;5776;51.814;4.510;2023-03-01T01:24:26;9.30;;;6.27;;
11439;SDS011;5776;51.814;4.510;2023-03-01T01:26:52;11.27;;;7.10;;
11439;SDS011;5776;51.814;4.510;2023-03-01T01:29:18;9.70;;;7.03;;
11439;SDS011;5776;51.814;4.510;2023-03-01T01:31:44;9.30;;;6.90;;
11439;SDS011;5776;51.814;4.510;2023-03-01T01:34:14;11.50;;;8.17;;
11439;SDS011;5776;51.814;4.510;2023-03-01T01:36:42;11.90;;;7.73;;
11439;SDS011;5776;51.814;4.510;2023-03-01T01:39:08;10.83;;;7.40;;
11439;SDS011;5776;51.814;4.510;2023-03-01T01:41:39;9.00;;;7.07;;
11439;SDS011;5776;51.814;4.510;2023-03-01T01:44:12;9.83;;;7.10;;
11439;SDS011;5776;51.814;4.510;2023-03-01T01:46:59;10.47;;;7.60;;
11439;SDS011;5776;51.814;4.510;2023-03-01T01:49:51;12.27;;;7.70;;
11439;SDS011;5776;51.814;4.510;2023-03-01T01:54:51;10.77;;;8.20;;
11439;SDS011;5776;51.814;4.510;2023-03-01T01:57:22;10.00;;;7.67;;
11439;SDS011;5776;51.814;4.510;2023-03-01T01:59:52;9.17;;;8.07;;
11439;SDS011;5776;51.814;4.510;2023-03-01T02:02:22;11.63;;;8.00;;
11439;SDS011;5776;51.814;4.510;2023-03-01T02:04:49;11.20;;;8.03;;
11439;SDS011;5776;51.814;4.510;2023-03-01T02:07:22;11.20;;;8.53;;
11439;SDS011;5776;51.814;4.510;2023-03-01T02:09:49;13.67;;;8.87;;
11439;SDS011;5776;51.814;4.510;2023-03-01T02:12:19;12.63;;;8.30;;
11439;SDS011;5776;51.814;4.510;2023-03-01T02:14:48;13.93;;;8.57;;
11439;SDS011;5776;51.814;4.510;2023-03-01T02:17:14;11.90;;;8.37;;
11439;SDS011;5776;51.814;4.510;2023-03-01T02:22:41;11.70;;;8.53;;
11439;SDS011;5776;51.814;4.510;2023-03-01T02:27:49;12.97;;;9.53;;
11439;SDS011;5776;51.814;4.510;2023-03-01T02:30:34;12.20;;;8.80;;
11439;SDS011;5776;51.814;4.510;2023-03-01T02:33:00;14.00;;;9.77;;
11439;SDS011;5776;51.814;4.510;2023-03-01T02:35:29;14.07;;;9.57;;
11439;SDS011;5776;51.814;4.510;2023-03-01T02:37:58;11.20;;;8.33;;
11439;SDS011;5776;51.814;4.510;2023-03-01T02:40:26;13.77;;;9.37;;
11439;SDS011;5776;51.814;4.510;2023-03-01T02:42:56;14.13;;;9.77;;
11439;SDS011;5776;51.814;4.510;2023-03-01T02:45:24;13.60;;;9.57;;
11439;SDS011;5776;51.814;4.510;2023-03-01T02:47:54;13.50;;;9.43;;
11439;SDS011;5776;51.814;4.510;2023-03-01T02:50:34;13.27;;;9.77;;
11439;SDS011;5776;51.814;4.510;2023-03-01T02:53:34;14.23;;;10.40;;
11439;SDS011;5776;51.814;4.510;2023-03-01T02:56:13;12.13;;;9.07;;
11439;SDS011;5776;51.814;4.510;2023-03-01T02:58:42;14.20;;;9.87;;
11439;SDS011;5776;51.814;4.510;2023-03-01T03:01:17;11.77;;;8.63;;
11439;SDS011;5776;51.814;4.510;2023-03-01T03:03:44;12.20;;;9.23;;
11439;SDS011;5776;51.814;4.510;2023-03-01T03:06:10;12.30;;;8.93;;
11439;SDS011;5776;51.814;4.510;2023-03-01T03:08:37;12.83;;;8.77;;
11439;SDS011;5776;51.814;4.510;2023-03-01T03:11:03;11.40;;;8.43;;
11439;SDS011;5776;51.814;4.510;2023-03-01T03:13:29;12.23;;;8.90;;
11439;SDS011;5776;51.814;4.510;2023-03-01T03:15:55;10.33;;;8.30;;
11439;SDS011;5776;51.814;4.510;2023-03-01T03:18:22;15.57;;;9.23;;
11439;SDS011;5776;51.814;4.510;2023-03-01T03:20:51;11.70;;;8.60;;
11439;SDS011;5776;51.814;4.510;2023-03-01T03:23:19;11.73;;;8.57;;
11439;SDS011;5776;51.814;4.510;2023-03-01T03:25:47;14.87;;;9.23;;
11439;SDS011;5776;51.814;4.510;2023-03-01T03:28:15;9.50;;;8.27;;
11439;SDS011;5776;51.814;4.510;2023-03-01T03:30:41;15.27;;;8.70;;
11439;SDS011;5776;51.814;4.510;2023-03-01T03:33:08;11.60;;;8.80;;
11439;SDS011;5776;51.814;4.510;2023-03-01T03:35:46;12.10;;;7.90;;
11439;SDS011;5776;51.814;4.510;2023-03-01T03:38:14;8.97;;;7.00;;
11439;SDS011;5776;51.814;4.510;2023-03-01T03:40:46;9.77;;;6.93;;
11439;SDS011;5776;51.814;4.510;2023-03-01T03:43:19;11.33;;;8.53;;
11439;SDS011;5776;51.814;4.510;2023-03-01T03:45:47;10.03;;;7.13;;
11439;SDS011;5776;51.814;4.510;2023-03-01T03:48:15;10.97;;;7.80;;
11439;SDS011;5776;51.814;4.510;2023-03-01T03:50:41;10.83;;;8.33;;
11439;SDS011;5776;51.814;4.510;2023-03-01T03:53:12;12.27;;;8.80;;
11439;SDS011;5776;51.814;4.510;2023-03-01T03:55:38;11.90;;;8.80;;
11439;SDS011;5776;51.814;4.510;2023-03-01T03:58:06;14.50;;;8.80;;
11439;SDS011;5776;51.814;4.510;2023-03-01T04:00:34;10.57;;;7.43;;
11439;SDS011;5776;51.814;4.510;2023-03-01T04:03:02;10.43;;;7.53;;
11439;SDS011;5776;51.814;4.510;2023-03-01T04:05:29;12.97;;;8.00;;
11439;SDS011;5776;51.814;4.510;2023-03-01T04:07:55;10.33;;;7.63;;
11439;SDS011;5776;51.814;4.510;2023-03-01T04:10:28;12.07;;;7.73;;
11439;SDS011;5776;51.814;4.510;2023-03-01T04:12:56;10.37;;;7.50;;
11439;SDS011;5776;51.814;4.510;2023-03-01T04:15:23;10.63;;;7.17;;
11439;SDS011;5776;51.814;4.510;2023-03-01T04:17:51;8.57;;;6.57;;
11439;SDS011;5776;51.814;4.510;2023-03-01T04:20:22;8.93;;;6.37;;
11439;SDS011;5776;51.814;4.510;2023-03-01T04:22:58;12.00;;;7.43;;
11439;SDS011;5776;51.814;4.510;2023-03-01T04:25:39;10.53;;;7.60;;
11439;SDS011;5776;51.814;4.510;2023-03-01T04:28:10;10.77;;;7.07;;
11439;SDS011;5776;51.814;4.510;2023-03-01T04:30:37;10.77;;;7.07;;
11439;SDS011;5776;51.814;4.510;2023-03-01T04:33:08;8.43;;;6.50;;
11439;SDS011;5776;51.814;4.510;2023-03-01T04:35:36;10.13;;;7.97;;
11439;SDS011;5776;51.814;4.510;2023-03-01T04:38:02;11.57;;;8.03;;
11439;SDS011;5776;51.814;4.510;2023-03-01T04:40:29;10.07;;;7.40;;
11439;SDS011;5776;51.814;4.510;2023-03-01T04:42:55;10.07;;;7.27;;
11439;SDS011;5776;51.814;4.510;2023-03-01T04:45:20;8.90;;;6.70;;
11439;SDS011;5776;51.814;4.510;2023-03-01T04:47:46;8.73;;;6.87;;
11439;SDS011;5776;51.814;4.510;2023-03-01T04:50:14;9.13;;;7.33;;
11439;SDS011;5776;51.814;4.510;2023-03-01T04:52:42;10.00;;;7.03;;
11439;SDS011;5776;51.814;4.510;2023-03-01T04:55:09;9.67;;;7.10;;
11439;SDS011;5776;51.814;4.510;2023-03-01T04:57:36;10.43;;;6.73;;
11439;SDS011;5776;51.814;4.510;2023-03-01T05:00:02;8.23;;;6.60;;
11439;SDS011;5776;51.814;4.510;2023-03-01T05:02:46;10.17;;;7.83;;
11439;SDS011;5776;51.814;4.510;2023-03-01T05:05:14;9.30;;;7.23;;
11439;SDS011;5776;51.814;4.510;2023-03-01T05:07:40;14.27;;;7.50;;
11439;SDS011;5776;51.814;4.510;2023-03-01T05:10:07;9.87;;;6.90;;
11439;SDS011;5776;51.814;4.510;2023-03-01T05:12:33;11.20;;;7.63;;
11439;SDS011;5776;51.814;4.510;2023-03-01T05:14:59;11.40;;;8.33;;
11439;SDS011;5776;51.814;4.510;2023-03-01T05:17:24;9.73;;;7.23;;
11439;SDS011;5776;51.814;4.510;2023-03-01T05:19:50;11.30;;;8.43;;
11439;SDS011;5776;51.814;4.510;2023-03-01T05:22:16;12.03;;;7.17;;
11439;SDS011;5776;51.814;4.510;2023-03-01T05:24:42;11.47;;;8.97;;
11439;SDS011;5776;51.814;4.510;2023-03-01T05:27:08;10.53;;;7.43;;
11439;SDS011;5776;51.814;4.510;2023-03-01T05:29:34;11.07;;;7.27;;
11439;SDS011;5776;51.814;4.510;2023-03-01T05:32:01;10.20;;;7.80;;
11439;SDS011;5776;51.814;4.510;2023-03-01T05:34:36;14.20;;;7.80;;
11439;SDS011;5776;51.814;4.510;2023-03-01T05:37:02;9.37;;;7.07;;
11439;SDS011;5776;51.814;4.510;2023-03-01T05:39:29;10.73;;;7.30;;
11439;SDS011;5776;51.814;4.510;2023-03-01T05:41:56;12.43;;;9.03;;
11439;SDS011;5776;51.814;4.510;2023-03-01T05:44:24;10.77;;;6.50;;
11439;SDS011;5776;51.814;4.510;2023-03-01T05:46:51;9.13;;;6.00;;
11439;SDS011;5776;51.814;4.510;2023-03-01T05:49:18;9.93;;;7.20;;
11439;SDS011;5776;51.814;4.510;2023-03-01T05:51:46;9.37;;;6.20;;
11439;SDS011;5776;51.814;4.510;2023-03-01T05:54:14;11.47;;;7.67;;
11439;SDS011;5776;51.814;4.510;2023-03-01T05:56:40;14.03;;;8.43;;
11439;SDS011;5776;51.814;4.510;2023-03-01T05:59:06;11.40;;;8.43;;
11439;SDS011;5776;51.814;4.510;2023-03-01T06:01:32;11.27;;;8.17;;
11439;SDS011;5776;51.814;4.510;2023-03-01T06:03:59;11.97;;;8.03;;
11439;SDS011;5776;51.814;4.510;2023-03-01T06:06:25;10.17;;;7.50;;
11439;SDS011;5776;51.814;4.510;2023-03-01T06:08:52;13.40;;;8.07;;
11439;SDS011;5776;51.814;4.510;2023-03-01T06:11:19;10.57;;;7.27;;
11439;SDS011;5776;51.814;4.510;2023-03-01T06:13:45;11.27;;;7.70;;
11439;SDS011;5776;51.814;4.510;2023-03-01T06:16:12;14.53;;;8.80;;
11439;SDS011;5776;51.814;4.510;2023-03-01T06:18:39;14.93;;;9.97;;
11439;SDS011;5776;51.814;4.510;2023-03-01T06:21:05;16.03;;;9.00;;
11439;SDS011;5776;51.814;4.510;2023-03-01T06:23:33;15.00;;;9.80;;
11439;SDS011;5776;51.814;4.510;2023-03-01T06:25:59;14.67;;;10.27;;
11439;SDS011;5776;51.814;4.510;2023-03-01T06:28:25;13.27;;;9.77;;
11439;SDS011;5776;51.814;4.510;2023-03-01T06:30:51;13.70;;;9.83;;
11439;SDS011;5776;51.814;4.510;2023-03-01T06:33:18;13.93;;;10.33;;
11439;SDS011;5776;51.814;4.510;2023-03-01T06:35:50;12.50;;;10.23;;
11439;SDS011;5776;51.814;4.510;2023-03-01T06:38:16;14.90;;;10.57;;
11439;SDS011;5776;51.814;4.510;2023-03-01T06:40:44;16.10;;;10.23;;
11439;SDS011;5776;51.814;4.510;2023-03-01T06:43:16;14.60;;;9.67;;
11439;SDS011;5776;51.814;4.510;2023-03-01T06:45:42;13.57;;;10.17;;
11439;SDS011;5776;51.814;4.510;2023-03-01T06:48:08;15.30;;;10.40;;
11439;SDS011;5776;51.814;4.510;2023-03-01T06:50:34;17.73;;;11.07;;
11439;SDS011;5776;51.814;4.510;2023-03-01T06:53:00;17.23;;;10.80;;
11439;SDS011;5776;51.814;4.510;2023-03-01T06:55:27;15.77;;;10.67;;
11439;SDS011;5776;51.814;4.510;2023-03-01T06:57:54;14.70;;;10.67;;
11439;SDS011;5776;51.814;4.510;2023-03-01T07:00:22;14.17;;;11.13;;
11439;SDS011;5776;51.814;4.510;2023-03-01T07:02:48;15.17;;;10.87;;
11439;SDS011;5776;51.814;4.510;2023-03-01T07:05:14;13.97;;;10.50;;
11439;SDS011;5776;51.814;4.510;2023-03-01T07:07:40;17.33;;;11.40;;
11439;SDS011;5776;51.814;4.510;2023-03-01T07:10:06;16.00;;;11.40;;
11439;SDS011;5776;51.814;4.510;2023-03-01T07:12:32;14.73;;;11.33;;
11439;SDS011;5776;51.814;4.510;2023-03-01T07:14:58;16.50;;;11.33;;
11439;SDS011;5776;51.814;4.510;2023-03-01T07:17:24;15.23;;;11.27;;
11439;SDS011;5776;51.814;4.510;2023-03-01T07:19:50;16.53;;;11.03;;
11439;SDS011;5776;51.814;4.510;2023-03-01T07:22:16;15.23;;;11.37;;
11439;SDS011;5776;51.814;4.510;2023-03-01T07:24:42;15.07;;;11.67;;
11439;SDS011;5776;51.814;4.510;2023-03-01T07:27:08;15.97;;;10.43;;
11439;SDS011;5776;51.814;4.510;2023-03-01T07:29:34;14.93;;;11.00;;
11439;SDS011;5776;51.814;4.510;2023-03-01T07:32:02;15.30;;;10.53;;
11439;SDS011;5776;51.814;4.510;2023-03-01T07:34:29;18.87;;;10.63;;
11439;SDS011;5776;51.814;4.510;2023-03-01T07:36:55;11.93;;;8.37;;
11439;SDS011;5776;51.814;4.510;2023-03-01T07:39:21;13.40;;;9.60;;
11439;SDS011;5776;51.814;4.510;2023-03-01T07:41:49;13.13;;;9.63;;
11439;SDS011;5776;51.814;4.510;2023-03-01T07:44:15;14.83;;;10.33;;
11439;SDS011;5776;51.814;4.510;2023-03-01T07:46:42;12.63;;;10.00;;
11439;SDS011;5776;51.814;4.510;2023-03-01T07:49:07;12.30;;;9.33;;
11439;SDS011;5776;51.814;4.510;2023-03-01T07:51:34;12.27;;;8.50;;
11439;SDS011;5776;51.814;4.510;2023-03-01T07:54:00;13.87;;;9.23;;
11439;SDS011;5776;51.814;4.510;2023-03-01T07:56:26;13.27;;;8.67;;
11439;SDS011;5776;51.814;4.510;2023-03-01T07:58:51;11.13;;;7.60;;
11439;SDS011;5776;51.814;4.510;2023-03-01T08:01:18;10.13;;;7.67;;
11439;SDS011;5776;51.814;4.510;2023-03-01T08:03:45;11.13;;;8.00;;
11439;SDS011;5776;51.814;4.510;2023-03-01T08:06:12;9.13;;;6.87;;
11439;SDS011;5776;51.814;4.510;2023-03-01T08:08:40;9.87;;;7.17;;
11439;SDS011;5776;51.814;4.510;2023-03-01T08:11:06;13.57;;;7.73;;
11439;SDS011;5776;51.814;4.510;2023-03-01T08:13:34;9.70;;;5.90;;
11439;SDS011;5776;51.814;4.510;2023-03-01T08:16:04;10.30;;;7.37;;
11439;SDS011;5776;51.814;4.510;2023-03-01T08:18:35;10.47;;;7.93;;
11439;SDS011;5776;51.814;4.510;2023-03-01T08:21:05;7.80;;;5.30;;
11439;SDS011;5776;51.814;4.510;2023-03-01T08:23:32;11.33;;;6.80;;
11439;SDS011;5776;51.814;4.510;2023-03-01T08:26:09;7.63;;;5.40;;
11439;SDS011;5776;51.814;4.510;2023-03-01T08:28:37;8.77;;;4.90;;
11439;SDS011;5776;51.814;4.510;2023-03-01T08:31:14;7.60;;;5.40;;
11439;SDS011;5776;51.814;4.510;2023-03-01T08:33:40;8.77;;;6.37;;
11439;SDS011;5776;51.814;4.510;2023-03-01T08:36:06;7.67;;;5.53;;
11439;SDS011;5776;51.814;4.510;2023-03-01T08:38:32;7.80;;;5.37;;
11439;SDS011;5776;51.814;4.510;2023-03-01T08:41:02;8.23;;;5.40;;
11439;SDS011;5776;51.814;4.510;2023-03-01T08:43:29;8.17;;;5.27;;
11439;SDS011;5776;51.814;4.510;2023-03-01T08:45:55;9.20;;;5.47;;
11439;SDS011;5776;51.814;4.510;2023-03-01T08:48:21;9.30;;;5.73;;
11439;SDS011;5776;51.814;4.510;2023-03-01T08:50:47;11.17;;;6.30;;
11439;SDS011;5776;51.814;4.510;2023-03-01T08:53:13;6.93;;;5.10;;
11439;SDS011;5776;51.814;4.510;2023-03-01T08:55:39;9.47;;;5.40;;
11439;SDS011;5776;51.814;4.510;2023-03-01T08:58:04;10.83;;;6.27;;
11439;SDS011;5776;51.814;4.510;2023-03-01T09:00:30;9.70;;;7.20;;
11439;SDS011;5776;51.814;4.510;2023-03-01T09:03:00;8.17;;;6.43;;
11439;SDS011;5776;51.814;4.510;2023-03-01T09:05:26;15.17;;;6.60;;
11439;SDS011;5776;51.814;4.510;2023-03-01T09:07:52;8.97;;;5.63;;
11439;SDS011;5776;51.814;4.510;2023-03-01T09:10:18;7.40;;;6.13;;
11439;SDS011;5776;51.814;4.510;2023-03-01T09:12:44;7.33;;;5.03;;
11439;SDS011;5776;51.814;4.510;2023-03-01T09:15:10;8.37;;;5.43;;
11439;SDS011;5776;51.814;4.510;2023-03-01T09:17:36;7.90;;;5.70;;
11439;SDS011;5776;51.814;4.510;2023-03-01T09:20:01;9.43;;;5.50;;
11439;SDS011;5776;51.814;4.510;2023-03-01T09:22:28;7.63;;;4.77;;
11439;SDS011;5776;51.814;4.510;2023-03-01T09:24:54;8.30;;;5.57;;
11439;SDS011;5776;51.814;4.510;2023-03-01T09:27:22;6.67;;;4.67;;
11439;SDS011;5776;51.814;4.510;2023-03-01T09:29:47;9.10;;;5.23;;
11439;SDS011;5776;51.814;4.510;2023-03-01T09:32:13;5.77;;;4.17;;
11439;SDS011;5776;51.814;4.510;2023-03-01T09:34:39;6.90;;;4.43;;
11439;SDS011;5776;51.814;4.510;2023-03-01T09:37:24;8.83;;;4.70;;
11439;SDS011;5776;51.814;4.510;2023-03-01T09:39:49;6.10;;;4.33;;
11439;SDS011;5776;51.814;4.510;2023-03-01T09:42:15;5.77;;;3.73;;
11439;SDS011;5776;51.814;4.510;2023-03-01T09:44:44;4.40;;;3.50;;
11439;SDS011;5776;51.814;4.510;2023-03-01T09:47:19;5.93;;;4.00;;
11439;SDS011;5776;51.814;4.510;2023-03-01T09:49:56;5.60;;;3.83;;
11439;SDS011;5776;51.814;4.510;2023-03-01T09:55:04;5.70;;;3.83;;
11439;SDS011;5776;51.814;4.510;2023-03-01T10:00:39;10.10;;;4.70;;
11439;SDS011;5776;51.814;4.510;2023-03-01T10:10:43;6.10;;;3.93;;
11439;SDS011;5776;51.814;4.510;2023-03-01T10:13:16;5.00;;;3.80;;
11439;SDS011;5776;51.814;4.510;2023-03-01T10:16:02;6.50;;;3.77;;
11439;SDS011;5776;51.814;4.510;2023-03-01T10:18:34;7.93;;;4.17;;
11439;SDS011;5776;51.814;4.510;2023-03-01T10:21:05;7.50;;;4.20;;
11439;SDS011;5776;51.814;4.510;2023-03-01T10:23:39;6.37;;;3.60;;
11439;SDS011;5776;51.814;4.510;2023-03-01T10:28:46;5.53;;;3.30;;
11439;SDS011;5776;51.814;4.510;2023-03-01T10:31:21;6.90;;;4.30;;
11439;SDS011;5776;51.814;4.510;2023-03-01T10:33:53;5.83;;;3.60;;
11439;SDS011;5776;51.814;4.510;2023-03-01T10:36:21;3.77;;;2.53;;
11439;SDS011;5776;51.814;4.510;2023-03-01T10:38:49;4.13;;;2.93;;
11439;SDS011;5776;51.814;4.510;2023-03-01T10:41:20;8.20;;;3.50;;
11439;SDS011;5776;51.814;4.510;2023-03-01T10:43:49;2.20;;;1.47;;
11439;SDS011;5776;51.814;4.510;2023-03-01T10:46:29;6.80;;;3.57;;
11439;SDS011;5776;51.814;4.510;2023-03-01T10:49:16;5.33;;;3.50;;
11439;SDS011;5776;51.814;4.510;2023-03-01T10:51:45;4.47;;;2.97;;
11439;SDS011;5776;51.814;4.510;2023-03-01T10:54:32;7.13;;;3.57;;
11439;SDS011;5776;51.814;4.510;2023-03-01T10:56:59;5.50;;;3.40;;
11439;SDS011;5776;51.814;4.510;2023-03-01T11:02:04;4.13;;;3.20;;
11439;SDS011;5776;51.814;4.510;2023-03-01T11:05:02;7.73;;;3.60;;
11439;SDS011;5776;51.814;4.510;2023-03-01T11:10:33;6.03;;;3.43;;
11439;SDS011;5776;51.814;4.510;2023-03-01T11:15:44;6.57;;;3.53;;
11439;SDS011;5776;51.814;4.510;2023-03-01T11:18:25;7.60;;;4.43;;
11439;SDS011;5776;51.814;4.510;2023-03-01T11:21:03;5.73;;;3.77;;
11439;SDS011;5776;51.814;4.510;2023-03-01T11:23:31;5.63;;;3.30;;
11439;SDS011;5776;51.814;4.510;2023-03-01T11:25:59;5.33;;;3.80;;
11439;SDS011;5776;51.814;4.510;2023-03-01T11:28:29;4.40;;;3.00;;
11439;SDS011;5776;51.814;4.510;2023-03-01T11:30:58;6.17;;;3.10;;
11439;SDS011;5776;51.814;4.510;2023-03-01T11:37:10;3.93;;;1.30;;
11439;SDS011;5776;51.814;4.510;2023-03-01T11:45:17;3.40;;;2.40;;
11439;SDS011;5776;51.814;4.510;2023-03-01T11:56:03;4.43;;;2.90;;
11439;SDS011;5776;51.814;4.510;2023-03-01T12:06:45;5.27;;;3.23;;
11439;SDS011;5776;51.814;4.510;2023-03-01T12:09:22;3.17;;;1.97;;
11439;SDS011;5776;51.814;4.510;2023-03-01T12:12:09;7.47;;;3.80;;
11439;SDS011;5776;51.814;4.510;2023-03-01T12:23:34;4.47;;;2.97;;
11439;SDS011;5776;51.814;4.510;2023-03-01T12:29:12;6.00;;;3.80;;
11439;SDS011;5776;51.814;4.510;2023-03-01T12:41:06;6.03;;;3.37;;
11439;SDS011;5776;51.814;4.510;2023-03-01T12:50:21;2.97;;;2.43;;
11439;SDS011;5776;51.814;4.510;2023-03-01T12:52:52;4.03;;;2.50;;
11439;SDS011;5776;51.814;4.510;2023-03-01T12:55:37;4.80;;;1.57;;
11439;SDS011;5776;51.814;4.510;2023-03-01T13:15:33;4.93;;;2.70;;
11439;SDS011;5776;51.814;4.510;2023-03-01T13:18:27;4.10;;;2.53;;
11439;SDS011;5776;51.814;4.510;2023-03-01T13:20:54;3.80;;;2.67;;
11439;SDS011;5776;51.814;4.510;2023-03-01T13:34:03;6.73;;;3.73;;
11439;SDS011;5776;51.814;4.510;2023-03-01T13:39:02;5.00;;;2.63;;
11439;SDS011;5776;51.814;4.510;2023-03-01T13:46:53;7.10;;;3.67;;
11439;SDS011;5776;51.814;4.510;2023-03-01T13:49:28;7.50;;;4.10;;
11439;SDS011;5776;51.814;4.510;2023-03-01T13:52:00;6.60;;;3.27;;
11439;SDS011;5776;51.814;4.510;2023-03-01T13:54:31;4.80;;;3.17;;
11439;SDS011;5776;51.814;4.510;2023-03-01T13:56:58;5.10;;;2.97;;
11439;SDS011;5776;51.814;4.510;2023-03-01T13:59:25;5.67;;;2.87;;
11439;SDS011;5776;51.814;4.510;2023-03-01T14:01:56;5.80;;;3.30;;
11439;SDS011;5776;51.814;4.510;2023-03-01T14:04:29;5.60;;;3.37;;
11439;SDS011;5776;51.814;4.510;2023-03-01T14:09:55;6.87;;;3.53;;
11439;SDS011;5776;51.814;4.510;2023-03-01T14:22:49;4.23;;;2.83;;
11439;SDS011;5776;51.814;4.510;2023-03-01T14:27:50;6.37;;;2.83;;
11439;SDS011;5776;51.814;4.510;2023-03-01T14:30:27;5.80;;;3.07;;
11439;SDS011;5776;51.814;4.510;2023-03-01T14:32:58;4.10;;;2.63;;
11439;SDS011;5776;51.814;4.510;2023-03-01T14:35:27;5.07;;;2.83;;
11439;SDS011;5776;51.814;4.510;2023-03-01T14:37:55;6.00;;;2.80;;
11439;SDS011;5776;51.814;4.510;2023-03-01T14:42:49;3.00;;;2.40;;
11439;SDS011;5776;51.814;4.510;2023-03-01T14:45:16;5.20;;;2.80;;
11439;SDS011;5776;51.814;4.510;2023-03-01T14:47:43;3.07;;;2.33;;
11439;SDS011;5776;51.814;4.510;2023-03-01T14:52:57;4.03;;;2.60;;
11439;SDS011;5776;51.814;4.510;2023-03-01T14:55:27;3.60;;;2.50;;
11439;SDS011;5776;51.814;4.510;2023-03-01T14:57:57;2.80;;;2.00;;
11439;SDS011;5776;51.814;4.510;2023-03-01T15:00:25;4.87;;;2.80;;
11439;SDS011;5776;51.814;4.510;2023-03-01T15:02:55;4.97;;;2.40;;
11439;SDS011;5776;51.814;4.510;2023-03-01T15:05:32;5.27;;;2.57;;
11439;SDS011;5776;51.814;4.510;2023-03-01T15:07:59;4.13;;;2.63;;
11439;SDS011;5776;51.814;4.510;2023-03-01T15:10:28;4.20;;;2.97;;
11439;SDS011;5776;51.814;4.510;2023-03-01T15:12:56;4.27;;;2.53;;
11439;SDS011;5776;51.814;4.510;2023-03-01T15:15:35;9.37;;;2.63;;
11439;SDS011;5776;51.814;4.510;2023-03-01T15:18:13;4.37;;;2.40;;
11439;SDS011;5776;51.814;4.510;2023-03-01T15:20:42;3.93;;;2.63;;
11439;SDS011;5776;51.814;4.510;2023-03-01T15:23:22;3.70;;;2.20;;
11439;SDS011;5776;51.814;4.510;2023-03-01T15:25:49;4.20;;;2.33;;
11439;SDS011;5776;51.814;4.510;2023-03-01T15:28:26;3.47;;;2.53;;
11439;SDS011;5776;51.814;4.510;2023-03-01T15:31:02;3.87;;;2.53;;
11439;SDS011;5776;51.814;4.510;2023-03-01T15:33:37;3.63;;;2.50;;
11439;SDS011;5776;51.814;4.510;2023-03-01T15:36:47;5.43;;;2.73;;
11439;SDS011;5776;51.814;4.510;2023-03-01T15:39:53;5.03;;;3.20;;
11439;SDS011;5776;51.814;4.510;2023-03-01T15:42:07;3.30;;;2.10;;
11439;SDS011;5776;51.814;4.510;2023-03-01T15:44:36;4.87;;;2.67;;
11439;SDS011;5776;51.814;4.510;2023-03-01T15:47:06;3.20;;;2.33;;
11439;SDS011;5776;51.814;4.510;2023-03-01T15:49:53;4.37;;;2.60;;
11439;SDS011;5776;51.814;4.510;2023-03-01T15:52:22;6.00;;;2.43;;
11439;SDS011;5776;51.814;4.510;2023-03-01T15:55:01;4.13;;;2.17;;
11439;SDS011;5776;51.814;4.510;2023-03-01T15:57:29;4.30;;;2.47;;
11439;SDS011;5776;51.814;4.510;2023-03-01T15:59:55;4.00;;;1.97;;
11439;SDS011;5776;51.814;4.510;2023-03-01T16:02:21;5.60;;;2.80;;
11439;SDS011;5776;51.814;4.510;2023-03-01T16:04:50;3.03;;;1.80;;
11439;SDS011;5776;51.814;4.510;2023-03-01T16:07:16;5.60;;;2.67;;
11439;SDS011;5776;51.814;4.510;2023-03-01T16:09:42;5.60;;;2.80;;
11439;SDS011;5776;51.814;4.510;2023-03-01T16:12:15;4.90;;;2.53;;
11439;SDS011;5776;51.814;4.510;2023-03-01T16:14:42;3.80;;;2.67;;
11439;SDS011;5776;51.814;4.510;2023-03-01T16:17:08;4.90;;;3.23;;
11439;SDS011;5776;51.814;4.510;2023-03-01T16:19:35;3.20;;;2.40;;
11439;SDS011;5776;51.814;4.510;2023-03-01T16:22:03;3.63;;;2.83;;
11439;SDS011;5776;51.814;4.510;2023-03-01T16:24:29;6.10;;;2.97;;
11439;SDS011;5776;51.814;4.510;2023-03-01T16:26:55;5.77;;;3.03;;
11439;SDS011;5776;51.814;4.510;2023-03-01T16:29:21;5.13;;;2.73;;
11439;SDS011;5776;51.814;4.510;2023-03-01T16:31:47;3.83;;;2.70;;
11439;SDS011;5776;51.814;4.510;2023-03-01T16:34:13;5.93;;;3.00;;
11439;SDS011;5776;51.814;4.510;2023-03-01T16:36:39;5.57;;;3.07;;
11439;SDS011;5776;51.814;4.510;2023-03-01T16:39:08;3.93;;;2.53;;
11439;SDS011;5776;51.814;4.510;2023-03-01T16:41:34;3.70;;;3.00;;
11439;SDS011;5776;51.814;4.510;2023-03-01T16:44:00;5.07;;;2.80;;
11439;SDS011;5776;51.814;4.510;2023-03-01T16:46:27;4.40;;;2.80;;
11439;SDS011;5776;51.814;4.510;2023-03-01T16:48:54;3.70;;;2.67;;
11439;SDS011;5776;51.814;4.510;2023-03-01T16:51:21;6.17;;;3.00;;
11439;SDS011;5776;51.814;4.510;2023-03-01T16:53:48;4.83;;;2.90;;
11439;SDS011;5776;51.814;4.510;2023-03-01T16:56:15;4.77;;;2.80;;
11439;SDS011;5776;51.814;4.510;2023-03-01T16:58:42;4.27;;;2.73;;
11439;SDS011;5776;51.814;4.510;2023-03-01T17:01:16;5.13;;;3.37;;
11439;SDS011;5776;51.814;4.510;2023-03-01T17:03:43;3.77;;;2.57;;
11439;SDS011;5776;51.814;4.510;2023-03-01T17:06:12;3.80;;;2.87;;
11439;SDS011;5776;51.814;4.510;2023-03-01T17:08:41;6.87;;;3.23;;
11439;SDS011;5776;51.814;4.510;2023-03-01T17:11:11;4.87;;;2.90;;
11439;SDS011;5776;51.814;4.510;2023-03-01T17:13:40;4.30;;;2.80;;
11439;SDS011;5776;51.814;4.510;2023-03-01T17:16:07;4.10;;;2.63;;
11439;SDS011;5776;51.814;4.510;2023-03-01T17:18:35;4.17;;;2.73;;
11439;SDS011;5776;51.814;4.510;2023-03-01T17:21:01;3.53;;;2.67;;
11439;SDS011;5776;51.814;4.510;2023-03-01T17:23:28;5.20;;;3.27;;
11439;SDS011;5776;51.814;4.510;2023-03-01T17:25:55;5.20;;;3.33;;
11439;SDS011;5776;51.814;4.510;2023-03-01T17:28:22;5.80;;;3.50;;
11439;SDS011;5776;51.814;4.510;2023-03-01T17:30:49;5.90;;;3.80;;